Time;durP1;ratioP1;P1;durP2;ratioP2;P2;SDS_P1;SDS_P2;PMS_P1;PMS_P2;Temp;Humidity;BMP_temperature;BMP_pressure;BME280_temperature;BME280_humidity;BME280_pressure;Samples;Min_cycle;Max_cycle;Signal;HPM_P1;HPM_P2
2023/01/17 00:01:54;;;;;;;1.23;1.08;;;;;;;;;;4978138;28;20096;-87
2023/01/17 00:10:06;;;;;;;0.63;0.63;;;;;;;;;;4983815;28;20045;-86
2023/01/17 00:12:32;;;;;;;1.60;0.90;;;;;;;;;;4977089;28;20065;-88
2023/01/17 00:14:58;;;;;;;0.47;0.47;;;;;;;;;;4979482;28;20074;-87
2023/01/17 00:17:26;;;;;;;0.98;0.80;;;;;;;;;;4986036;28;20030;-87
2023/01/17 01:35:11;;;;;;;3.03;1.17;;;;;;;;;;5005254;28;20230;-89
2023/01/17 01:37:36;;;;;;;2.90;1.40;;;;;;;;;;5002455;28;20023;-86
2023/01/17 01:40:02;;;;;;;0.80;0.80;;;;;;;;;;4991163;28;20484;-88
2023/01/17 01:42:27;;;;;;;1.00;0.93;;;;;;;;;;4993553;28;20022;-86
2023/01/17 01:44:53;;;;;;;0.70;0.70;;;;;;;;;;4999469;28;20089;-86
2023/01/17 01:47:39;;;;;;;1.95;0.85;;;;;;;;;;5005647;28;20014;-85
2023/01/17 01:50:10;;;;;;;3.50;1.13;;;;;;;;;;5003615;28;20444;-88
2023/01/17 01:52:40;;;;;;;0.82;0.82;;;;;;;;;;5000229;28;20042;-85
2023/01/17 01:55:11;;;;;;;2.75;1.08;;;;;;;;;;4996499;28;20070;-85
2023/01/17 01:57:40;;;;;;;1.67;1.02;;;;;;;;;;4987716;28;20023;-86
2023/01/17 02:00:15;;;;;;;1.20;1.10;;;;;;;;;;4986585;28;20500;-86
2023/01/17 02:02:42;;;;;;;5.25;1.40;;;;;;;;;;4998649;28;20109;-88
2023/01/17 02:05:08;;;;;;;1.25;1.02;;;;;;;;;;5004341;28;20049;-87
2023/01/17 02:07:43;;;;;;;1.15;0.90;;;;;;;;;;4993433;28;20481;-87
2023/01/17 02:10:09;;;;;;;1.85;0.90;;;;;;;;;;4994157;28;20048;-88
2023/01/17 02:12:35;;;;;;;4.85;1.35;;;;;;;;;;4987349;28;20055;-88
2023/01/17 02:15:01;;;;;;;3.63;1.10;;;;;;;;;;4994902;28;20154;-87
2023/01/17 02:17:46;;;;;;;2.55;1.15;;;;;;;;;;4994127;28;20042;-87
2023/01/17 02:20:33;;;;;;;1.20;1.05;;;;;;;;;;4995045;28;20490;-88
2023/01/17 02:23:33;;;;;;;1.35;0.88;;;;;;;;;;4995223;28;20545;-88
2023/01/17 02:26:34;;;;;;;1.20;1.10;;;;;;;;;;5001305;28;20436;-87
2023/01/17 02:29:21;;;;;;;2.08;1.35;;;;;;;;;;4995324;28;20038;-87
2023/01/17 02:31:46;;;;;;;1.15;1.00;;;;;;;;;;4991551;28;20435;-88
2023/01/17 02:34:19;;;;;;;7.03;1.13;;;;;;;;;;4996060;28;20684;-87
2023/01/17 02:36:52;;;;;;;0.60;0.60;;;;;;;;;;4989168;28;20034;-86
2023/01/17 02:39:23;;;;;;;0.45;0.45;;;;;;;;;;4989085;28;20022;-86
2023/01/17 02:42:03;;;;;;;1.10;1.10;;;;;;;;;;4997278;28;20040;-85
2023/01/17 02:44:29;;;;;;;0.85;0.85;;;;;;;;;;4995275;28;20113;-84
2023/01/17 02:46:56;;;;;;;0.98;0.88;;;;;;;;;;4992043;28;20112;-86
2023/01/17 02:49:26;;;;;;;0.85;0.85;;;;;;;;;;4991287;28;20036;-87
2023/01/17 02:52:20;;;;;;;1.10;0.75;;;;;;;;;;5001615;28;20034;-88
2023/01/17 02:55:06;;;;;;;0.82;0.70;;;;;;;;;;4990066;28;20038;-86
2023/01/17 02:57:48;;;;;;;0.70;0.70;;;;;;;;;;4992621;28;20038;-87
2023/01/17 03:00:19;;;;;;;;;;;;;;;;;;5006351;28;20025;-85
2023/01/17 03:03:03;;;;;;;0.65;0.60;;;;;;;;;;4987368;28;19962;-86
2023/01/17 03:05:51;;;;;;;1.08;0.98;;;;;;;;;;4991744;28;20037;-85
2023/01/17 03:08:17;;;;;;;0.50;0.50;;;;;;;;;;4992464;28;20026;-87
2023/01/17 03:10:43;;;;;;;3.10;0.82;;;;;;;;;;4983389;28;20036;-86
2023/01/17 03:13:09;;;;;;;0.90;0.65;;;;;;;;;;4984959;28;20117;-86
2023/01/17 03:15:34;;;;;;;1.98;0.88;;;;;;;;;;4997576;28;20042;-85
2023/01/17 03:18:03;;;;;;;0.73;0.73;;;;;;;;;;4990936;28;20057;-87
2023/01/17 03:20:29;;;;;;;0.65;0.65;;;;;;;;;;4988011;28;20031;-86
2023/01/17 03:22:54;;;;;;;0.85;0.85;;;;;;;;;;4995419;28;20053;-86
2023/01/17 03:25:20;;;;;;;1.77;1.10;;;;;;;;;;4994526;28;20026;-87
2023/01/17 03:27:45;;;;;;;1.77;0.82;;;;;;;;;;4992232;28;20135;-86
2023/01/17 03:30:11;;;;;;;2.58;0.90;;;;;;;;;;4985269;28;20385;-87
2023/01/17 03:32:36;;;;;;;1.60;0.75;;;;;;;;;;4991856;28;20488;-86
2023/01/17 03:35:02;;;;;;;0.98;0.80;;;;;;;;;;4994952;28;20045;-86
2023/01/17 03:37:27;;;;;;;0.77;0.65;;;;;;;;;;4995825;28;20030;-85
2023/01/17 03:39:52;;;;;;;0.80;0.80;;;;;;;;;;5006289;28;20058;-86
2023/01/17 03:42:18;;;;;;;0.70;0.70;;;;;;;;;;4996704;28;20026;-86
2023/01/17 03:44:43;;;;;;;0.90;0.90;;;;;;;;;;4995350;28;20034;-87
2023/01/17 03:47:10;;;;;;;0.85;0.85;;;;;;;;;;4989990;28;20361;-86
2023/01/17 03:49:37;;;;;;;2.85;0.90;;;;;;;;;;4999686;28;20046;-86
2023/01/17 03:52:03;;;;;;;0.80;0.80;;;;;;;;;;4995295;28;20057;-85
2023/01/17 03:54:28;;;;;;;1.00;1.00;;;;;;;;;;4993282;28;20428;-87
2023/01/17 03:56:54;;;;;;;1.70;0.95;;;;;;;;;;4998173;28;20034;-85
2023/01/17 03:59:19;;;;;;;0.63;0.63;;;;;;;;;;4993481;28;20038;-86
2023/01/17 04:01:44;;;;;;;0.77;0.77;;;;;;;;;;4992741;28;20033;-87
2023/01/17 04:04:10;;;;;;;0.82;0.82;;;;;;;;;;4989201;28;20038;-89
2023/01/17 04:06:35;;;;;;;3.50;0.85;;;;;;;;;;5011872;28;20041;-87
2023/01/17 04:09:00;;;;;;;7.43;1.42;;;;;;;;;;5006622;28;20079;-87
2023/01/17 04:11:26;;;;;;;0.88;0.55;;;;;;;;;;4998805;28;20110;-87
2023/01/17 04:13:51;;;;;;;0.60;0.60;;;;;;;;;;4992543;28;20063;-86
2023/01/17 04:16:17;;;;;;;1.10;0.60;;;;;;;;;;4991194;28;20034;-86
2023/01/17 04:18:43;;;;;;;0.68;0.68;;;;;;;;;;4986047;28;20107;-86
2023/01/17 04:21:09;;;;;;;0.80;0.57;;;;;;;;;;4987131;28;20015;-87
2023/01/17 04:23:34;;;;;;;0.80;0.80;;;;;;;;;;4991526;28;20034;-87
2023/01/17 04:26:02;;;;;;;0.60;0.60;;;;;;;;;;4994702;28;20578;-87
2023/01/17 04:28:27;;;;;;;0.82;0.82;;;;;;;;;;4996932;28;20038;-85
2023/01/17 04:30:57;;;;;;;0.70;0.70;;;;;;;;;;4996706;28;20033;-87
2023/01/17 04:33:23;;;;;;;0.63;0.63;;;;;;;;;;4987753;28;20022;-88
2023/01/17 04:35:48;;;;;;;0.77;0.77;;;;;;;;;;5000740;28;20026;-88
2023/01/17 04:38:13;;;;;;;4.30;0.73;;;;;;;;;;4995872;28;20054;-87
2023/01/17 04:40:38;;;;;;;0.90;0.90;;;;;;;;;;5007349;28;20030;-88
2023/01/17 04:43:04;;;;;;;0.95;0.88;;;;;;;;;;4987162;28;20041;-88
2023/01/17 04:45:29;;;;;;;0.85;0.82;;;;;;;;;;4999967;28;20030;-88
2023/01/17 04:47:55;;;;;;;0.47;0.47;;;;;;;;;;5001250;28;20033;-88
2023/01/17 04:50:20;;;;;;;0.82;0.82;;;;;;;;;;5002131;28;20037;-89
2023/01/17 04:52:45;;;;;;;1.38;1.00;;;;;;;;;;4993905;28;20373;-88
2023/01/17 04:55:11;;;;;;;0.80;0.80;;;;;;;;;;5013250;28;20028;-89
2023/01/17 04:57:36;;;;;;;1.08;0.98;;;;;;;;;;4993956;28;20118;-89
2023/01/17 05:00:03;;;;;;;1.10;0.95;;;;;;;;;;4998464;28;20058;-88
2023/01/17 05:02:28;;;;;;;4.82;1.00;;;;;;;;;;5001478;28;20022;-87
2023/01/17 05:04:53;;;;;;;1.27;1.10;;;;;;;;;;5004285;28;20033;-88
2023/01/17 05:07:19;;;;;;;0.68;0.68;;;;;;;;;;5015061;28;20112;-89
2023/01/17 05:09:44;;;;;;;1.00;1.00;;;;;;;;;;4996204;28;20045;-88
2023/01/17 05:12:10;;;;;;;0.80;0.80;;;;;;;;;;4993467;28;20027;-89
2023/01/17 05:14:35;;;;;;;0.88;0.88;;;;;;;;;;5005978;28;20441;-87
2023/01/17 05:17:01;;;;;;;1.45;1.00;;;;;;;;;;4990205;28;20022;-86
2023/01/17 05:19:27;;;;;;;0.60;0.60;;;;;;;;;;4982743;28;20038;-87
2023/01/17 05:21:53;;;;;;;0.60;0.60;;;;;;;;;;4992061;28;20122;-85
2023/01/17 05:24:19;;;;;;;0.85;0.70;;;;;;;;;;5002470;28;20711;-86
2023/01/17 05:26:44;;;;;;;0.70;0.70;;;;;;;;;;5000449;28;20045;-85
2023/01/17 05:29:10;;;;;;;0.75;0.75;;;;;;;;;;4995738;28;20057;-86
2023/01/17 05:31:36;;;;;;;0.65;0.65;;;;;;;;;;4996357;28;20177;-86
2023/01/17 05:34:03;;;;;;;1.10;0.70;;;;;;;;;;4998715;28;20034;-85
2023/01/17 05:36:28;;;;;;;0.50;0.50;;;;;;;;;;4996859;28;20712;-85
2023/01/17 05:38:54;;;;;;;1.52;1.00;;;;;;;;;;4993790;28;20109;-85
2023/01/17 05:41:19;;;;;;;0.63;0.63;;;;;;;;;;5001828;28;20109;-86
2023/01/17 05:43:44;;;;;;;1.55;0.40;;;;;;;;;;4997260;28;20109;-85
2023/01/17 05:46:10;;;;;;;0.68;0.68;;;;;;;;;;4994140;28;20033;-86
2023/01/17 05:48:35;;;;;;;0.55;0.55;;;;;;;;;;4993364;28;20029;-85
2023/01/17 05:51:01;;;;;;;1.65;0.70;;;;;;;;;;4992905;28;20026;-85
2023/01/17 05:53:26;;;;;;;2.13;1.13;;;;;;;;;;4987269;28;20026;-85
2023/01/17 05:55:51;;;;;;;3.30;1.13;;;;;;;;;;4997728;28;20026;-86
2023/01/17 05:58:20;;;;;;;2.53;0.80;;;;;;;;;;5002360;28;20026;-84
2023/01/17 06:00:45;;;;;;;2.05;1.30;;;;;;;;;;4997005;28;20041;-85
2023/01/17 06:03:11;;;;;;;1.90;1.00;;;;;;;;;;5003477;28;20157;-85
2023/01/17 06:05:37;;;;;;;0.73;0.73;;;;;;;;;;5004564;28;20042;-86
2023/01/17 06:08:02;;;;;;;1.45;0.80;;;;;;;;;;4995421;28;20381;-84
2023/01/17 06:10:28;;;;;;;2.35;1.02;;;;;;;;;;4995818;28;20046;-86
2023/01/17 06:13:02;;;;;;;1.63;1.23;;;;;;;;;;4992620;28;20030;-86
2023/01/17 06:15:28;;;;;;;1.92;1.23;;;;;;;;;;4995581;28;20041;-86
2023/01/17 06:17:54;;;;;;;1.30;0.82;;;;;;;;;;4988043;28;20038;-86
2023/01/17 06:20:19;;;;;;;2.28;1.10;;;;;;;;;;4984900;28;20045;-86
2023/01/17 06:22:44;;;;;;;2.42;1.13;;;;;;;;;;4989244;28;20033;-85
2023/01/17 06:25:10;;;;;;;1.60;1.10;;;;;;;;;;4986133;28;20109;-87
2023/01/17 06:27:35;;;;;;;4.32;0.93;;;;;;;;;;4987027;28;20058;-86
2023/01/17 06:30:01;;;;;;;1.63;1.08;;;;;;;;;;4989174;28;20914;-85
2023/01/17 06:32:26;;;;;;;0.90;0.90;;;;;;;;;;4985331;28;20495;-85
2023/01/17 06:34:51;;;;;;;1.52;1.10;;;;;;;;;;5002348;28;20047;-86
2023/01/17 06:37:17;;;;;;;0.68;0.60;;;;;;;;;;4986769;28;20027;-87
2023/01/17 06:39:42;;;;;;;1.17;0.80;;;;;;;;;;5002731;28;20033;-87
2023/01/17 06:42:07;;;;;;;1.13;1.00;;;;;;;;;;5007303;28;20025;-88
2023/01/17 06:44:33;;;;;;;3.17;1.10;;;;;;;;;;4999638;28;20053;-87
2023/01/17 06:46:58;;;;;;;0.93;0.93;;;;;;;;;;4997431;28;20022;-87
2023/01/17 06:49:24;;;;;;;3.90;1.05;;;;;;;;;;5005575;28;20065;-86
2023/01/17 06:51:49;;;;;;;1.95;1.05;;;;;;;;;;4996155;28;20026;-87
2023/01/17 06:54:15;;;;;;;1.38;1.10;;;;;;;;;;5000058;28;20026;-87
2023/01/17 06:56:40;;;;;;;1.17;0.93;;;;;;;;;;5011410;28;20121;-87
2023/01/17 06:59:05;;;;;;;2.35;1.00;;;;;;;;;;5005599;28;20536;-87
2023/01/17 07:01:31;;;;;;;2.80;1.27;;;;;;;;;;4996726;28;20025;-87
2023/01/17 07:03:56;;;;;;;1.67;1.30;;;;;;;;;;4986469;28;20379;-88
2023/01/17 07:06:23;;;;;;;2.72;0.93;;;;;;;;;;4996864;28;20078;-87
2023/01/17 07:08:49;;;;;;;1.40;1.23;;;;;;;;;;4993914;28;20343;-87
2023/01/17 07:11:14;;;;;;;1.73;1.08;;;;;;;;;;4996660;28;20075;-88
2023/01/17 07:13:40;;;;;;;2.33;1.20;;;;;;;;;;4990356;28;20022;-88
2023/01/17 07:16:06;;;;;;;3.15;1.58;;;;;;;;;;4987200;28;20022;-88
2023/01/17 07:18:33;;;;;;;3.25;1.13;;;;;;;;;;5009048;28;20022;-87
2023/01/17 07:20:59;;;;;;;1.88;1.25;;;;;;;;;;4990417;28;20100;-87
2023/01/17 07:23:25;;;;;;;9.07;1.27;;;;;;;;;;5003862;28;20019;-87
2023/01/17 07:25:58;;;;;;;3.95;0.98;;;;;;;;;;4996504;28;20051;-87
2023/01/17 07:28:26;;;;;;;1.42;1.33;;;;;;;;;;5001860;28;20026;-87
2023/01/17 07:30:51;;;;;;;3.15;1.60;;;;;;;;;;4982112;28;20022;-87
2023/01/17 07:33:17;;;;;;;1.95;0.95;;;;;;;;;;4993242;28;20018;-86
2023/01/17 07:35:42;;;;;;;1.50;0.93;;;;;;;;;;4998029;28;20432;-87
2023/01/17 07:38:13;;;;;;;3.20;1.90;;;;;;;;;;4993092;28;20033;-87
2023/01/17 07:40:38;;;;;;;3.03;0.90;;;;;;;;;;4986012;28;20026;-86
2023/01/17 07:43:12;;;;;;;0.90;0.60;;;;;;;;;;4988310;28;20041;-86
2023/01/17 07:45:42;;;;;;;1.23;1.13;;;;;;;;;;4994758;28;20038;-87
2023/01/17 07:48:08;;;;;;;11.60;1.45;;;;;;;;;;4994970;28;20022;-86
2023/01/17 07:50:35;;;;;;;2.10;1.27;;;;;;;;;;4980413;28;20027;-87
2023/01/17 07:53:00;;;;;;;3.40;0.95;;;;;;;;;;4987480;28;20022;-87
2023/01/17 07:55:26;;;;;;;1.17;0.85;;;;;;;;;;4995791;28;20030;-87
2023/01/17 07:57:51;;;;;;;2.10;1.13;;;;;;;;;;4991030;28;20088;-87
2023/01/17 08:00:17;;;;;;;3.83;1.67;;;;;;;;;;4992295;28;20027;-87
2023/01/17 08:02:42;;;;;;;4.50;1.42;;;;;;;;;;4987447;28;20030;-87
2023/01/17 08:05:08;;;;;;;6.38;2.42;;;;;;;;;;4996977;28;20037;-86
2023/01/17 08:07:33;;;;;;;5.25;1.90;;;;;;;;;;4992174;28;20022;-87
2023/01/17 08:10:00;;;;;;;1.73;1.55;;;;;;;;;;4990295;28;20121;-88
2023/01/17 08:12:25;;;;;;;1.40;1.17;;;;;;;;;;5007254;28;20019;-87
2023/01/17 08:14:51;;;;;;;3.42;2.13;;;;;;;;;;4990597;28;20093;-86
2023/01/17 08:17:17;;;;;;;5.05;2.08;;;;;;;;;;4989485;28;20018;-88
2023/01/17 08:19:43;;;;;;;1.95;1.52;;;;;;;;;;4986239;28;20034;-88
2023/01/17 08:22:10;;;;;;;2.47;2.08;;;;;;;;;;4987284;28;20420;-88
2023/01/17 08:24:36;;;;;;;2.22;1.67;;;;;;;;;;4986921;28;20038;-87
2023/01/17 08:27:02;;;;;;;2.13;1.63;;;;;;;;;;4981291;28;20030;-87
2023/01/17 08:29:28;;;;;;;2.97;1.70;;;;;;;;;;4998222;28;20042;-87
2023/01/17 08:31:53;;;;;;;3.50;1.42;;;;;;;;;;4981569;28;20026;-86
2023/01/17 08:34:25;;;;;;;2.95;1.60;;;;;;;;;;4984557;28;20473;-87
2023/01/17 08:41:15;;;;;;;2.92;1.55;;;;;;;;;;4954906;28;20297;-87
2023/01/17 08:44:50;;;;;;;1.95;1.75;;;;;;;;;;4953491;28;20038;-87
2023/01/17 09:52:47;;;;;;;1.73;1.45;;;;;;;;;;4966336;28;20054;-86
2023/01/17 10:09:59;;;;;;;1.75;1.40;;;;;;;;;;4892471;29;20095;-86
2023/01/17 10:26:28;;;;;;;1.35;1.10;;;;;;;;;;4918310;29;20125;-88
2023/01/17 10:29:01;;;;;;;4.43;1.35;;;;;;;;;;4946121;28;20054;-88
2023/01/17 10:31:30;;;;;;;2.47;1.27;;;;;;;;;;4994634;28;20563;-87
2023/01/17 10:34:04;;;;;;;2.78;1.33;;;;;;;;;;5002232;28;20032;-86
2023/01/17 10:36:41;;;;;;;5.00;1.33;;;;;;;;;;5002920;28;20033;-87
2023/01/17 10:39:19;;;;;;;1.10;1.10;;;;;;;;;;5005238;28;20081;-87
2023/01/17 10:41:54;;;;;;;3.13;1.08;;;;;;;;;;5006467;28;20030;-86
2023/01/17 10:44:34;;;;;;;2.88;1.15;;;;;;;;;;4996081;28;20034;-86
2023/01/17 10:47:13;;;;;;;3.92;1.15;;;;;;;;;;4990730;28;20053;-86
2023/01/17 10:49:45;;;;;;;0.57;0.57;;;;;;;;;;5006392;28;20042;-87
2023/01/17 10:52:29;;;;;;;2.63;1.45;;;;;;;;;;4986004;28;20022;-86
2023/01/17 10:55:07;;;;;;;1.65;1.00;;;;;;;;;;4995088;28;20038;-87
2023/01/17 10:57:43;;;;;;;1.40;0.88;;;;;;;;;;5008953;28;20036;-87
2023/01/17 11:00:31;;;;;;;1.50;1.10;;;;;;;;;;5006801;28;20101;-88
2023/01/17 11:02:56;;;;;;;4.88;1.40;;;;;;;;;;4989068;28;20054;-88
2023/01/17 11:05:25;;;;;;;2.08;0.98;;;;;;;;;;4995380;28;20022;-89
2023/01/17 11:07:59;;;;;;;1.52;0.93;;;;;;;;;;4979343;28;20412;-87
2023/01/17 11:10:39;;;;;;;2.70;0.95;;;;;;;;;;4976720;28;20073;-86
2023/01/17 11:13:22;;;;;;;2.60;0.68;;;;;;;;;;4996327;28;20468;-85
2023/01/17 11:15:50;;;;;;;0.80;0.80;;;;;;;;;;5000190;28;20026;-86
2023/01/17 11:18:18;;;;;;;3.03;0.73;;;;;;;;;;4990194;28;20052;-86
2023/01/17 11:20:45;;;;;;;0.68;0.68;;;;;;;;;;4989658;28;20046;-87
2023/01/17 11:23:17;;;;;;;2.45;0.82;;;;;;;;;;4991325;28;20448;-86
2023/01/17 11:26:03;;;;;;;0.73;0.50;;;;;;;;;;4991780;28;20080;-86
2023/01/17 11:28:32;;;;;;;0.60;0.60;;;;;;;;;;4994073;28;20053;-87
2023/01/17 11:31:03;;;;;;;0.60;0.60;;;;;;;;;;4991367;28;20077;-85
2023/01/17 11:33:52;;;;;;;1.13;0.70;;;;;;;;;;4997397;28;20041;-86
2023/01/17 11:36:27;;;;;;;0.73;0.50;;;;;;;;;;4992674;28;20026;-85
2023/01/17 11:38:58;;;;;;;1.02;0.50;;;;;;;;;;4996456;28;20174;-86
2023/01/17 11:41:26;;;;;;;1.73;0.88;;;;;;;;;;4995441;28;20038;-86
2023/01/17 11:44:00;;;;;;;6.03;1.15;;;;;;;;;;5002783;28;20373;-88
2023/01/17 11:46:29;;;;;;;0.88;0.88;;;;;;;;;;5004599;28;20018;-88
2023/01/17 11:48:58;;;;;;;0.60;0.60;;;;;;;;;;4993430;28;20034;-87
2023/01/17 11:51:37;;;;;;;1.80;0.80;;;;;;;;;;4992139;28;20049;-87
2023/01/17 11:54:15;;;;;;;1.27;1.00;;;;;;;;;;4996452;28;20097;-86
2023/01/17 11:56:44;;;;;;;0.75;0.63;;;;;;;;;;4993974;28;20038;-87
2023/01/17 11:59:23;;;;;;;0.55;0.55;;;;;;;;;;4996883;28;20133;-85
2023/01/17 12:02:01;;;;;;;2.60;0.70;;;;;;;;;;5002654;28;20026;-85
2023/01/17 12:04:31;;;;;;;0.70;0.70;;;;;;;;;;5001037;28;20404;-84
2023/01/17 12:07:06;;;;;;;0.57;0.57;;;;;;;;;;5006683;28;20064;-85
2023/01/17 12:09:47;;;;;;;0.52;0.52;;;;;;;;;;5021677;28;20029;-87
2023/01/17 12:15:11;;;;;;;0.43;0.35;;;;;;;;;;4991270;28;20049;-88
2023/01/17 12:17:58;;;;;;;0.50;0.50;;;;;;;;;;5001542;28;20385;-86
2023/01/17 12:20:45;;;;;;;1.10;0.45;;;;;;;;;;4997464;28;20030;-86
2023/01/17 12:23:42;;;;;;;3.03;0.63;;;;;;;;;;4985831;28;20050;-85
2023/01/17 12:26:26;;;;;;;1.00;0.90;;;;;;;;;;4989392;28;20031;-84
2023/01/17 12:29:04;;;;;;;1.30;0.35;;;;;;;;;;4990299;28;20122;-86
2023/01/17 12:32:00;;;;;;;0.30;0.30;;;;;;;;;;5000902;28;20065;-86
2023/01/17 12:34:45;;;;;;;0.47;0.40;;;;;;;;;;4993746;28;20025;-85
2023/01/17 12:37:25;;;;;;;0.40;0.40;;;;;;;;;;4997417;28;20058;-86
2023/01/17 12:40:21;;;;;;;0.65;0.65;;;;;;;;;;5002502;28;20026;-85
2023/01/17 12:42:55;;;;;;;0.70;0.70;;;;;;;;;;4982833;28;20043;-86
2023/01/17 12:45:32;;;;;;;1.05;0.50;;;;;;;;;;4980195;28;20058;-86
2023/01/17 12:48:03;;;;;;;3.00;0.90;;;;;;;;;;4994761;28;20026;-85
2023/01/17 12:50:43;;;;;;;0.73;0.55;;;;;;;;;;5003406;28;20154;-86
2023/01/17 12:53:31;;;;;;;2.03;0.65;;;;;;;;;;4996955;28;20022;-85
2023/01/17 12:56:15;;;;;;;0.60;0.60;;;;;;;;;;5004776;28;20025;-86
2023/01/17 12:58:46;;;;;;;1.05;0.63;;;;;;;;;;5003378;28;20068;-86
2023/01/17 13:01:23;;;;;;;0.32;0.32;;;;;;;;;;5005770;28;20106;-86
2023/01/17 13:04:02;;;;;;;0.45;0.45;;;;;;;;;;5008030;28;20049;-85
2023/01/17 13:06:43;;;;;;;0.32;0.32;;;;;;;;;;4998568;28;20030;-85
2023/01/17 13:09:12;;;;;;;1.08;0.50;;;;;;;;;;5000126;28;20076;-85
2023/01/17 13:11:45;;;;;;;2.75;0.55;;;;;;;;;;5002058;28;20023;-85
2023/01/17 13:14:10;;;;;;;0.65;0.55;;;;;;;;;;4996816;28;20060;-86
2023/01/17 13:16:56;;;;;;;1.33;0.70;;;;;;;;;;5008157;28;20030;-86
2023/01/17 13:19:41;;;;;;;0.77;0.75;;;;;;;;;;4996256;28;20102;-86
2023/01/17 13:22:16;;;;;;;1.67;1.00;;;;;;;;;;4993687;28;20034;-87
2023/01/17 13:25:07;;;;;;;0.98;0.68;;;;;;;;;;5021906;28;20025;-85
2023/01/17 13:27:54;;;;;;;0.98;0.80;;;;;;;;;;4999947;28;20033;-87
2023/01/17 13:30:23;;;;;;;1.17;0.82;;;;;;;;;;5002893;28;20024;-85
2023/01/17 13:33:25;;;;;;;0.98;0.85;;;;;;;;;;5003032;28;20385;-86
2023/01/17 13:35:50;;;;;;;0.52;0.52;;;;;;;;;;4992689;28;20038;-85
2023/01/17 13:38:33;;;;;;;0.70;0.70;;;;;;;;;;5000922;28;20025;-86
2023/01/17 13:41:32;;;;;;;0.47;0.47;;;;;;;;;;4985066;28;20054;-85
2023/01/17 13:47:26;;;;;;;0.40;0.40;;;;;;;;;;5020114;28;20040;-87
2023/01/17 13:49:55;;;;;;;1.75;0.82;;;;;;;;;;5017152;28;20038;-87
2023/01/17 13:52:22;;;;;;;1.15;0.70;;;;;;;;;;5013692;28;20464;-85
2023/01/17 13:54:52;;;;;;;2.72;0.80;;;;;;;;;;4988283;28;20027;-86
2023/01/17 13:57:45;;;;;;;0.50;0.50;;;;;;;;;;4997082;28;20076;-86
2023/01/17 14:00:22;;;;;;;0.88;0.88;;;;;;;;;;4999345;28;20026;-85
2023/01/17 14:02:49;;;;;;;3.45;0.90;;;;;;;;;;4990147;28;20027;-88
2023/01/17 14:05:20;;;;;;;0.73;0.73;;;;;;;;;;4989635;28;20023;-85
2023/01/17 14:07:56;;;;;;;2.30;0.60;;;;;;;;;;4981154;28;20485;-85
2023/01/17 14:10:45;;;;;;;1.38;0.70;;;;;;;;;;4991258;28;20031;-86
2023/01/17 14:13:33;;;;;;;1.17;0.75;;;;;;;;;;4983340;28;20030;-86
2023/01/17 14:16:00;;;;;;;0.73;0.65;;;;;;;;;;5002866;28;20077;-86
2023/01/17 14:18:38;;;;;;;0.60;0.60;;;;;;;;;;4999823;28;20393;-86
2023/01/17 14:21:17;;;;;;;2.22;0.88;;;;;;;;;;5002061;28;20062;-88
2023/01/17 14:23:49;;;;;;;0.47;0.47;;;;;;;;;;4989107;28;20030;-89
2023/01/17 14:26:41;;;;;;;2.38;0.93;;;;;;;;;;5010834;28;20029;-86
2023/01/17 14:29:44;;;;;;;8.27;0.80;;;;;;;;;;4978860;28;20137;-86
2023/01/17 14:32:16;;;;;;;2.05;0.85;;;;;;;;;;4995798;28;20062;-87
2023/01/17 14:34:45;;;;;;;4.70;1.05;;;;;;;;;;4981609;28;20050;-88
2023/01/17 14:37:37;;;;;;;1.67;0.90;;;;;;;;;;4992917;28;20034;-87
2023/01/17 14:40:15;;;;;;;1.52;1.20;;;;;;;;;;4988081;28;20050;-85
2023/01/17 14:42:45;;;;;;;2.55;1.42;;;;;;;;;;5002428;28;20026;-88
2023/01/17 14:45:19;;;;;;;1.85;1.55;;;;;;;;;;5003121;28;20034;-86
2023/01/17 14:47:46;;;;;;;1.52;1.15;;;;;;;;;;4997209;28;20233;-86
2023/01/17 14:50:30;;;;;;;2.20;1.17;;;;;;;;;;5004516;28;20060;-89
2023/01/17 14:53:10;;;;;;;2.77;1.20;;;;;;;;;;4990696;28;20444;-88
2023/01/17 14:55:55;;;;;;;1.35;1.08;;;;;;;;;;4994230;28;20065;-86
2023/01/17 14:58:29;;;;;;;3.00;1.52;;;;;;;;;;5004956;28;20081;-86
2023/01/17 15:00:56;;;;;;;7.68;1.67;;;;;;;;;;5021968;28;20549;-87
2023/01/17 15:03:23;;;;;;;1.02;0.98;;;;;;;;;;5014381;28;20515;-88
2023/01/17 15:05:51;;;;;;;2.40;1.10;;;;;;;;;;5001626;28;20035;-87
2023/01/17 15:08:20;;;;;;;2.58;1.40;;;;;;;;;;5000233;28;20045;-87
2023/01/17 15:10:51;;;;;;;2.65;1.23;;;;;;;;;;4984093;28;20396;-87
2023/01/17 15:13:23;;;;;;;3.10;1.52;;;;;;;;;;5003942;28;20018;-87
2023/01/17 15:15:48;;;;;;;1.17;1.00;;;;;;;;;;5005589;28;20124;-87
2023/01/17 15:18:18;;;;;;;5.57;1.60;;;;;;;;;;4983856;28;20149;-86
2023/01/17 15:20:52;;;;;;;3.10;1.27;;;;;;;;;;4992720;28;20381;-87
2023/01/17 15:23:22;;;;;;;5.32;1.40;;;;;;;;;;4985616;28;20041;-87
2023/01/17 15:25:50;;;;;;;3.28;1.50;;;;;;;;;;4986694;28;20033;-86
2023/01/17 15:28:16;;;;;;;6.03;1.67;;;;;;;;;;4990117;28;20029;-87
2023/01/17 15:31:03;;;;;;;2.38;1.27;;;;;;;;;;4986622;28;20396;-86
2023/01/17 15:33:31;;;;;;;1.88;1.30;;;;;;;;;;4986556;28;20072;-86
2023/01/17 15:36:16;;;;;;;3.33;1.23;;;;;;;;;;4984300;28;20033;-87
2023/01/17 15:38:51;;;;;;;4.45;1.80;;;;;;;;;;4987186;28;20076;-86
2023/01/17 15:41:20;;;;;;;3.63;1.45;;;;;;;;;;4984442;28;20093;-88
2023/01/17 15:43:46;;;;;;;2.22;1.25;;;;;;;;;;4998990;28;20026;-87
2023/01/17 15:46:24;;;;;;;2.15;1.25;;;;;;;;;;4987259;28;20033;-87
2023/01/17 15:48:50;;;;;;;2.90;2.10;;;;;;;;;;4984518;28;20858;-87
2023/01/17 15:51:30;;;;;;;4.35;1.95;;;;;;;;;;4991946;28;20035;-85
2023/01/17 15:53:55;;;;;;;2.45;1.65;;;;;;;;;;4978981;28;20034;-86
2023/01/17 15:56:30;;;;;;;4.78;1.77;;;;;;;;;;4978338;28;20057;-86
2023/01/17 15:59:31;;;;;;;3.28;1.48;;;;;;;;;;4976788;28;20113;-86
2023/01/17 16:01:58;;;;;;;3.15;1.25;;;;;;;;;;4971940;28;20042;-86
2023/01/17 16:04:35;;;;;;;6.38;1.67;;;;;;;;;;4978805;28;20096;-86
2023/01/17 16:07:19;;;;;;;3.13;1.98;;;;;;;;;;4975134;28;20034;-85
2023/01/17 16:09:45;;;;;;;4.65;2.00;;;;;;;;;;4975817;28;20033;-86
2023/01/17 16:12:10;;;;;;;3.47;2.10;;;;;;;;;;4983174;28;20099;-86
2023/01/17 16:14:36;;;;;;;3.72;1.83;;;;;;;;;;4995597;28;20315;-86
2023/01/17 16:17:02;;;;;;;2.67;1.95;;;;;;;;;;4996870;28;20034;-85
2023/01/17 16:19:31;;;;;;;3.85;1.58;;;;;;;;;;4987811;28;20563;-85
2023/01/17 16:22:01;;;;;;;4.97;1.92;;;;;;;;;;4989590;28;20185;-87
2023/01/17 16:24:29;;;;;;;4.35;2.20;;;;;;;;;;4985082;28;20034;-87
2023/01/17 16:26:55;;;;;;;2.35;1.60;;;;;;;;;;4979874;28;20069;-87
2023/01/17 16:29:20;;;;;;;5.53;1.88;;;;;;;;;;4961213;28;20042;-87
2023/01/17 16:31:46;;;;;;;3.60;1.55;;;;;;;;;;4975994;28;20073;-86
2023/01/17 16:34:11;;;;;;;12.73;2.10;;;;;;;;;;4974011;28;20038;-87
2023/01/17 16:36:37;;;;;;;6.63;2.15;;;;;;;;;;4981181;28;20066;-88
2023/01/17 16:39:03;;;;;;;5.90;1.83;;;;;;;;;;4975563;28;20049;-87
2023/01/17 16:41:28;;;;;;;5.75;2.30;;;;;;;;;;4973021;28;20042;-86
2023/01/17 16:44:02;;;;;;;4.93;2.25;;;;;;;;;;4972576;28;20054;-87
2023/01/17 16:46:28;;;;;;;5.05;1.60;;;;;;;;;;4965161;28;20938;-87
2023/01/17 16:48:54;;;;;;;2.33;1.88;;;;;;;;;;4976258;28;20044;-86
2023/01/17 16:51:19;;;;;;;5.13;2.10;;;;;;;;;;4983105;28;20097;-87
2023/01/17 16:53:45;;;;;;;5.18;2.45;;;;;;;;;;4984380;28;20018;-87
2023/01/17 16:56:13;;;;;;;6.43;2.30;;;;;;;;;;4980264;28;20026;-86
2023/01/17 16:58:39;;;;;;;3.38;2.03;;;;;;;;;;4973529;28;20046;-86
2023/01/17 17:01:15;;;;;;;5.85;2.30;;;;;;;;;;4980991;28;20029;-87
2023/01/17 17:03:42;;;;;;;2.85;2.08;;;;;;;;;;4986442;28;20077;-87
2023/01/17 17:06:08;;;;;;;4.57;2.47;;;;;;;;;;4986427;28;20031;-86
2023/01/17 17:08:34;;;;;;;4.07;2.40;;;;;;;;;;4984252;28;20121;-86
2023/01/17 17:11:26;;;;;;;5.20;2.50;;;;;;;;;;4979869;28;20156;-87
2023/01/17 17:13:51;;;;;;;5.20;2.50;;;;;;;;;;4974062;28;20034;-86
2023/01/17 17:16:22;;;;;;;5.70;2.53;;;;;;;;;;4983137;28;20038;-86
2023/01/17 17:18:56;;;;;;;7.20;2.42;;;;;;;;;;4990357;28;20061;-86
2023/01/17 17:21:22;;;;;;;3.95;2.13;;;;;;;;;;4993088;28;20026;-85
2023/01/17 17:23:55;;;;;;;7.80;2.17;;;;;;;;;;4992863;28;20053;-86
2023/01/17 17:26:20;;;;;;;4.15;1.55;;;;;;;;;;4990027;28;20026;-86
2023/01/17 17:28:50;;;;;;;4.68;2.15;;;;;;;;;;4985638;28;20030;-86
2023/01/17 17:31:15;;;;;;;4.88;2.63;;;;;;;;;;4989049;28;20018;-87
2023/01/17 17:33:41;;;;;;;3.67;2.15;;;;;;;;;;4994771;28;20054;-86
2023/01/17 17:36:08;;;;;;;10.82;2.30;;;;;;;;;;4993578;28;20424;-89
2023/01/17 17:38:34;;;;;;;4.13;2.45;;;;;;;;;;4993252;28;20037;-88
2023/01/17 17:41:10;;;;;;;5.32;2.30;;;;;;;;;;4985094;28;20121;-86
2023/01/17 17:43:37;;;;;;;4.32;2.45;;;;;;;;;;4972394;28;20038;-87
2023/01/17 17:46:03;;;;;;;6.03;2.80;;;;;;;;;;4988159;28;20077;-86
2023/01/17 17:48:28;;;;;;;6.10;2.63;;;;;;;;;;4979791;28;20030;-88
2023/01/17 17:50:58;;;;;;;3.92;2.22;;;;;;;;;;4985968;28;20459;-87
2023/01/17 17:53:24;;;;;;;2.45;1.77;;;;;;;;;;4986167;28;20037;-87
2023/01/17 17:55:50;;;;;;;6.05;2.80;;;;;;;;;;4990197;28;20076;-89
2023/01/17 17:58:16;;;;;;;3.55;2.40;;;;;;;;;;4992689;28;20024;-88
2023/01/17 18:00:42;;;;;;;4.72;2.38;;;;;;;;;;4994308;28;20452;-88
2023/01/17 18:03:07;;;;;;;6.55;2.17;;;;;;;;;;4988000;28;20097;-88
2023/01/17 18:05:33;;;;;;;7.13;2.55;;;;;;;;;;4996894;28;20045;-87
2023/01/17 18:07:59;;;;;;;3.60;1.80;;;;;;;;;;5001808;28;20113;-88
2023/01/17 18:10:25;;;;;;;5.55;2.50;;;;;;;;;;4996331;28;20027;-88
2023/01/17 18:12:51;;;;;;;6.70;2.72;;;;;;;;;;5001216;28;20045;-86